Time;durP1;ratioP1;P1;durP2;ratioP2;P2;SDS_P1;SDS_P2;PMS_P1;PMS_P2;Temp;Humidity;BMP_temperature;BMP_pressure;BME280_temperature;BME280_humidity;BME280_pressure;Samples;Min_cycle;Max_cycle;Signal;HPM_P1;HPM_P2
2021/06/22 00:01:05;;;;;;;2.40;1.00;;;25.30;56.50;;;;;;4993707;28;20428;-62
2021/06/22 00:03:31;;;;;;;2.10;1.30;;;25.30;56.50;;;;;;4992867;28;20788;-62
2021/06/22 00:05:57;;;;;;;2.78;1.08;;;25.30;56.50;;;;;;4984592;28;20501;-63
2021/06/22 00:08:23;;;;;;;2.78;1.00;;;25.30;56.60;;;;;;4988724;28;20939;-62
2021/06/22 00:10:49;;;;;;;3.40;1.33;;;25.30;56.50;;;;;;4998060;28;20445;-62
2021/06/22 00:13:15;;;;;;;2.15;1.10;;;25.30;56.40;;;;;;4989588;28;20509;-63
2021/06/22 00:15:41;;;;;;;1.92;0.93;;;25.30;56.50;;;;;;4989396;28;20424;-62
2021/06/22 00:18:08;;;;;;;2.60;1.10;;;25.30;56.50;;;;;;4988581;28;20392;-62
2021/06/22 00:20:34;;;;;;;2.40;0.97;;;25.30;56.40;;;;;;4993907;28;20448;-62
2021/06/22 00:23:00;;;;;;;2.13;0.95;;;25.20;57.00;;;;;;4989209;28;20478;-63
2021/06/22 00:25:26;;;;;;;2.10;1.08;;;25.30;56.40;;;;;;4988857;28;20399;-62
2021/06/22 00:27:55;;;;;;;2.00;0.90;;;25.20;56.30;;;;;;4992332;28;20413;-62
2021/06/22 00:30:22;;;;;;;1.95;0.90;;;25.20;56.30;;;;;;4997924;28;20456;-63
2021/06/22 00:32:48;;;;;;;2.28;0.80;;;25.20;56.30;;;;;;4992612;28;20398;-62
2021/06/22 00:35:15;;;;;;;2.00;0.90;;;25.20;56.30;;;;;;4992363;28;20394;-62
2021/06/22 00:37:42;;;;;;;2.30;1.10;;;25.20;56.40;;;;;;4989521;28;20394;-62
2021/06/22 00:40:10;;;;;;;1.73;0.90;;;25.20;56.40;;;;;;4990236;28;20807;-63
2021/06/22 00:42:36;;;;;;;2.28;1.00;;;25.20;56.40;;;;;;4993447;28;20390;-62
2021/06/22 00:45:04;;;;;;;2.20;1.00;;;25.20;56.40;;;;;;4989658;28;20432;-63
2021/06/22 00:47:31;;;;;;;1.88;0.93;;;25.20;56.30;;;;;;4987922;28;20488;-63
2021/06/22 00:49:57;;;;;;;2.03;0.93;;;25.20;56.30;;;;;;4988818;28;20469;-63
2021/06/22 00:52:27;;;;;;;2.33;0.80;;;25.20;56.40;;;;;;4990115;28;20472;-62
2021/06/22 00:54:54;;;;;;;2.38;0.90;;;25.20;56.40;;;;;;4995271;28;20396;-62
2021/06/22 00:57:21;;;;;;;1.80;0.70;;;25.20;56.30;;;;;;4994916;28;20488;-62
2021/06/22 00:59:47;;;;;;;2.10;0.93;;;25.20;56.30;;;;;;4995283;28;20668;-62
2021/06/22 01:02:14;;;;;;;2.20;1.00;;;25.20;56.30;;;;;;4988572;28;20401;-63
2021/06/22 01:04:40;;;;;;;1.67;0.80;;;25.20;56.30;;;;;;5000952;28;20415;-63
2021/06/22 01:07:06;;;;;;;2.13;0.90;;;25.10;56.20;;;;;;4989882;28;20468;-62
2021/06/22 01:09:33;;;;;;;1.58;0.70;;;25.20;56.30;;;;;;4990836;28;20390;-62
2021/06/22 01:12:00;;;;;;;2.10;0.77;;;25.20;56.30;;;;;;4990853;28;20391;-62
2021/06/22 01:14:27;;;;;;;2.00;0.80;;;25.10;56.20;;;;;;4991707;28;20387;-62
2021/06/22 01:16:54;;;;;;;1.63;0.80;;;25.10;56.20;;;;;;4984771;28;20398;-63
2021/06/22 01:19:20;;;;;;;1.88;0.75;;;25.10;56.20;;;;;;4986402;28;20389;-62
2021/06/22 01:21:48;;;;;;;2.00;1.00;;;25.10;56.20;;;;;;4986678;28;20485;-62
2021/06/22 01:24:19;;;;;;;1.80;0.77;;;25.10;56.20;;;;;;4987213;28;20403;-63
2021/06/22 01:26:48;;;;;;;2.05;0.70;;;25.10;56.20;;;;;;4989904;28;20426;-62
2021/06/22 01:29:14;;;;;;;1.67;0.70;;;25.10;56.20;;;;;;4991785;28;20456;-63
2021/06/22 01:31:40;;;;;;;1.73;0.73;;;25.10;56.20;;;;;;4994448;28;20755;-62
2021/06/22 01:34:07;;;;;;;1.50;0.70;;;25.10;56.20;;;;;;4996042;28;20459;-63
2021/06/22 01:36:34;;;;;;;1.52;0.70;;;25.10;56.20;;;;;;4997599;28;20381;-63
2021/06/22 01:39:02;;;;;;;2.15;0.80;;;25.10;56.10;;;;;;4997391;28;20397;-63
2021/06/22 01:41:28;;;;;;;1.60;0.70;;;25.10;56.20;;;;;;4995255;28;20412;-62
2021/06/22 01:43:54;;;;;;;1.73;0.70;;;25.10;56.20;;;;;;5003754;28;20404;-62
2021/06/22 01:46:20;;;;;;;2.00;0.77;;;25.10;56.10;;;;;;4992687;28;20829;-62
2021/06/22 01:48:46;;;;;;;1.67;0.80;;;25.10;56.20;;;;;;4992887;28;20764;-63
2021/06/22 01:51:13;;;;;;;1.83;0.80;;;25.10;56.20;;;;;;4991463;28;20422;-62
2021/06/22 01:53:39;;;;;;;1.55;0.73;;;25.10;56.10;;;;;;4991153;28;20441;-63
2021/06/22 01:56:07;;;;;;;1.40;0.70;;;25.10;56.20;;;;;;5000310;28;20402;-62
2021/06/22 01:58:33;;;;;;;1.63;0.70;;;25.10;56.10;;;;;;4988266;28;20625;-63
2021/06/22 02:01:00;;;;;;;2.95;0.95;;;25.10;56.10;;;;;;4991626;28;20921;-62
2021/06/22 02:03:27;;;;;;;1.23;0.68;;;25.10;56.10;;;;;;4991418;28;20428;-62
2021/06/22 02:05:53;;;;;;;1.65;0.60;;;25.10;56.10;;;;;;4994538;28;20467;-62
2021/06/22 02:08:20;;;;;;;1.67;0.80;;;25.10;56.10;;;;;;4992362;28;20398;-62
2021/06/22 02:10:47;;;;;;;1.85;0.82;;;25.10;56.10;;;;;;4995646;28;20434;-63
2021/06/22 02:13:13;;;;;;;1.55;0.80;;;25.10;56.10;;;;;;4995643;28;20411;-63
2021/06/22 02:15:41;;;;;;;1.20;0.60;;;25.10;56.10;;;;;;4985471;28;20398;-63
2021/06/22 02:18:09;;;;;;;2.15;0.77;;;25.00;56.00;;;;;;4994819;28;20409;-64
2021/06/22 02:20:36;;;;;;;2.25;0.70;;;25.00;56.00;;;;;;4996670;28;20423;-62
2021/06/22 02:23:03;;;;;;;1.83;1.00;;;25.00;56.00;;;;;;4991001;28;20631;-62
2021/06/22 02:25:29;;;;;;;1.88;0.77;;;25.00;56.00;;;;;;4990890;28;20399;-63
2021/06/22 02:28:31;;;;;;;1.60;0.77;;;25.00;56.00;;;;;;4986421;28;20410;-62
2021/06/22 02:30:58;;;;;;;1.83;0.70;;;25.00;56.10;;;;;;4991412;28;20822;-62
2021/06/22 02:33:25;;;;;;;1.75;0.70;;;25.00;56.10;;;;;;4994546;28;20391;-62
2021/06/22 02:35:52;;;;;;;1.52;0.80;;;25.00;56.00;;;;;;4991198;28;20398;-62
2021/06/22 02:38:18;;;;;;;1.98;0.80;;;25.00;56.00;;;;;;4991769;28;20395;-62
2021/06/22 02:40:44;;;;;;;1.58;0.70;;;25.00;56.00;;;;;;4994492;28;20453;-63
2021/06/22 02:43:10;;;;;;;1.73;0.70;;;25.00;56.00;;;;;;4987505;28;20425;-63
2021/06/22 02:45:37;;;;;;;2.63;0.52;;;25.00;56.00;;;;;;4996087;28;20420;-63
2021/06/22 02:48:04;;;;;;;1.75;0.80;;;25.00;56.00;;;;;;4990789;28;20814;-63
2021/06/22 02:50:30;;;;;;;1.60;0.60;;;25.00;56.00;;;;;;5001735;28;20401;-63
2021/06/22 02:52:56;;;;;;;1.80;0.70;;;25.00;56.00;;;;;;4989480;28;20454;-63
2021/06/22 02:55:22;;;;;;;1.50;0.70;;;25.00;56.00;;;;;;4996924;28;20393;-62
2021/06/22 02:57:53;;;;;;;1.25;0.65;;;25.00;56.00;;;;;;4995664;28;20412;-63
2021/06/22 03:00:30;;;;;;;1.73;0.70;;;25.00;56.10;;;;;;4991988;28;20391;-63
2021/06/22 03:02:57;;;;;;;2.00;0.60;;;25.00;56.00;;;;;;4991134;28;20405;-62
2021/06/22 03:05:23;;;;;;;1.83;0.80;;;25.00;56.00;;;;;;4994782;28;20838;-62
2021/06/22 03:07:49;;;;;;;1.67;0.70;;;25.00;56.00;;;;;;4992586;28;20982;-62
2021/06/22 03:10:17;;;;;;;1.80;0.60;;;25.00;56.00;;;;;;4991342;28;20881;-62
2021/06/22 03:12:44;;;;;;;1.90;0.80;;;25.00;56.00;;;;;;4983242;28;20416;-63
2021/06/22 03:15:12;;;;;;;2.10;0.85;;;25.00;56.00;;;;;;4990892;28;20386;-64
2021/06/22 03:17:38;;;;;;;1.50;0.68;;;25.00;56.00;;;;;;5002629;28;20424;-62
2021/06/22 03:20:06;;;;;;;2.13;1.00;;;25.00;56.00;;;;;;4991493;28;20390;-62
2021/06/22 03:22:32;;;;;;;1.88;0.75;;;25.00;56.00;;;;;;4990515;28;20403;-62
2021/06/22 03:24:58;;;;;;;1.85;0.70;;;25.00;56.00;;;;;;4989617;28;20869;-63
2021/06/22 03:27:24;;;;;;;1.85;0.73;;;24.90;56.00;;;;;;4989716;28;20781;-62
2021/06/22 03:29:50;;;;;;;1.05;0.55;;;24.90;56.00;;;;;;4994530;28;20387;-63
2021/06/22 03:32:16;;;;;;;1.55;0.60;;;25.00;56.00;;;;;;4993442;28;20418;-63
2021/06/22 03:34:43;;;;;;;2.03;0.77;;;24.90;55.90;;;;;;4990832;28;20493;-63
2021/06/22 03:37:09;;;;;;;1.58;0.70;;;25.00;56.00;;;;;;4993902;28;20444;-63
2021/06/22 03:39:35;;;;;;;1.50;0.70;;;24.90;56.00;;;;;;4991015;28;21028;-62
2021/06/22 03:42:02;;;;;;;1.52;0.60;;;24.90;56.00;;;;;;4990129;28;20406;-63
2021/06/22 03:44:28;;;;;;;1.65;0.77;;;24.90;56.00;;;;;;4995229;28;20384;-63
2021/06/22 03:46:54;;;;;;;3.28;0.75;;;24.90;56.00;;;;;;4995502;28;20778;-62
2021/06/22 03:49:20;;;;;;;3.22;1.38;;;25.00;56.00;;;;;;4989950;28;20421;-63
2021/06/22 03:51:47;;;;;;;3.35;1.13;;;24.90;56.00;;;;;;4990095;28;20562;-62
2021/06/22 03:54:15;;;;;;;4.38;1.00;;;24.90;56.20;;;;;;4989391;28;20395;-62
2021/06/22 03:56:40;;;;;;;4.82;1.40;;;24.80;56.00;;;;;;4983764;28;20481;-63
2021/06/22 03:59:06;;;;;;;3.40;0.90;;;24.80;55.80;;;;;;4989710;28;20965;-62
2021/06/22 04:01:33;;;;;;;3.10;0.90;;;24.80;55.80;;;;;;4992760;28;20746;-62
2021/06/22 04:03:59;;;;;;;3.03;1.02;;;24.80;56.10;;;;;;4991471;28;20426;-62
2021/06/22 04:06:25;;;;;;;4.32;0.80;;;24.70;56.00;;;;;;4993051;28;20848;-61
2021/06/22 04:08:51;;;;;;;3.03;1.02;;;24.70;56.00;;;;;;4992430;28;20394;-61
2021/06/22 04:11:17;;;;;;;3.75;1.10;;;24.70;56.00;;;;;;4990105;28;20398;-61
2021/06/22 04:13:43;;;;;;;4.77;1.17;;;24.70;55.90;;;;;;4990872;28;20390;-61
2021/06/22 04:16:09;;;;;;;3.42;1.10;;;24.70;56.00;;;;;;4990449;28;20453;-60
2021/06/22 04:18:35;;;;;;;3.15;1.00;;;24.70;55.90;;;;;;4990202;28;20382;-62
2021/06/22 04:21:01;;;;;;;6.28;1.20;;;24.70;56.10;;;;;;4988462;28;21175;-61
2021/06/22 04:23:27;;;;;;;2.65;1.10;;;24.70;55.90;;;;;;4988824;28;20437;-61
2021/06/22 04:25:53;;;;;;;4.07;1.13;;;24.70;56.00;;;;;;5000994;28;20490;-62
2021/06/22 04:28:19;;;;;;;3.10;1.10;;;24.60;56.20;;;;;;4983564;28;20413;-61
2021/06/22 04:30:45;;;;;;;4.70;1.13;;;24.60;56.40;;;;;;4983245;28;20883;-61
2021/06/22 04:33:11;;;;;;;9.10;1.50;;;24.60;56.50;;;;;;4987868;28;21031;-62
2021/06/22 04:35:38;;;;;;;3.25;1.20;;;24.50;56.50;;;;;;4985858;28;20403;-61
2021/06/22 04:38:05;;;;;;;4.03;1.20;;;24.50;56.70;;;;;;4987680;28;20404;-61
2021/06/22 04:40:31;;;;;;;3.03;1.10;;;24.50;56.90;;;;;;4991114;28;20386;-61
2021/06/22 04:42:57;;;;;;;3.60;1.10;;;24.50;57.10;;;;;;4991279;28;20445;-61
2021/06/22 04:45:23;;;;;;;5.00;1.20;;;24.50;57.40;;;;;;4984975;28;20399;-62
2021/06/22 04:47:49;;;;;;;4.07;1.20;;;24.50;57.10;;;;;;4983025;28;20835;-63
2021/06/22 04:50:15;;;;;;;5.23;1.37;;;24.60;57.30;;;;;;4989238;28;20481;-62
2021/06/22 04:52:41;;;;;;;4.13;1.10;;;24.60;56.90;;;;;;4991264;28;20406;-62
2021/06/22 04:55:12;;;;;;;4.63;1.50;;;24.60;57.10;;;;;;4988549;28;20464;-64
2021/06/22 04:57:44;;;;;;;7.65;1.42;;;24.60;57.50;;;;;;4987704;28;20400;-62
2021/06/22 05:00:10;;;;;;;5.68;1.38;;;24.60;56.90;;;;;;4990740;28;20400;-62
2021/06/22 05:02:36;;;;;;;6.97;1.13;;;24.60;57.00;;;;;;4986662;28;20494;-62
2021/06/22 05:05:03;;;;;;;11.75;1.88;;;24.60;57.00;;;;;;4986387;28;20394;-62
2021/06/22 05:07:29;;;;;;;7.20;1.35;;;24.60;56.90;;;;;;4990574;28;20437;-63
2021/06/22 05:09:54;;;;;;;5.30;1.20;;;24.60;56.90;;;;;;4991271;28;20391;-62
2021/06/22 05:12:20;;;;;;;3.78;0.93;;;24.60;56.70;;;;;;4992468;28;20402;-62
2021/06/22 05:14:47;;;;;;;5.45;1.35;;;24.60;56.60;;;;;;4992765;28;20406;-63
2021/06/22 05:17:13;;;;;;;6.20;1.27;;;24.60;56.70;;;;;;4991672;28;20391;-62
2021/06/22 05:19:38;;;;;;;5.30;1.30;;;24.60;56.60;;;;;;4990980;28;20390;-62
2021/06/22 05:22:04;;;;;;;3.80;1.10;;;24.70;56.60;;;;;;4992853;28;20481;-62
2021/06/22 05:24:30;;;;;;;6.40;1.23;;;24.60;56.50;;;;;;4992361;28;20413;-63
2021/06/22 05:26:56;;;;;;;4.78;1.30;;;24.60;56.80;;;;;;4992428;28;20995;-62
2021/06/22 05:29:21;;;;;;;3.50;1.03;;;24.60;56.40;;;;;;4991905;28;20849;-63
2021/06/22 05:31:47;;;;;;;3.05;0.93;;;24.70;56.50;;;;;;4992246;28;20402;-62
2021/06/22 05:34:13;;;;;;;4.87;1.13;;;24.70;56.30;;;;;;4990265;28;20474;-63
2021/06/22 05:36:38;;;;;;;1.92;0.90;;;24.70;56.50;;;;;;5000900;28;20445;-62
2021/06/22 05:39:04;;;;;;;3.80;1.27;;;24.70;56.40;;;;;;4986395;28;20807;-63
2021/06/22 05:41:30;;;;;;;4.50;1.00;;;24.70;56.30;;;;;;4992399;28;20413;-62
2021/06/22 05:43:55;;;;;;;2.95;1.00;;;24.70;56.20;;;;;;4992768;28;20872;-62
2021/06/22 05:46:21;;;;;;;3.53;1.20;;;24.70;56.20;;;;;;5007577;28;20445;-62
2021/06/22 05:48:47;;;;;;;3.60;1.00;;;24.80;56.30;;;;;;4993084;28;20398;-62
2021/06/22 05:51:12;;;;;;;2.93;1.00;;;24.80;56.30;;;;;;4993212;28;20413;-62
2021/06/22 05:53:38;;;;;;;2.75;1.00;;;24.80;56.30;;;;;;4991616;28;20399;-62
2021/06/22 05:56:04;;;;;;;4.93;1.10;;;24.80;56.30;;;;;;4995847;28;20385;-62
2021/06/22 05:58:30;;;;;;;2.57;1.10;;;24.80;56.40;;;;;;4991920;28;20393;-62
2021/06/22 06:00:55;;;;;;;3.10;1.00;;;24.80;56.30;;;;;;5000265;28;20402;-62
2021/06/22 06:03:21;;;;;;;2.17;0.80;;;24.90;56.30;;;;;;5000740;28;20800;-62
2021/06/22 06:05:47;;;;;;;2.08;0.82;;;24.90;56.40;;;;;;4989457;28;20457;-62
2021/06/22 06:08:13;;;;;;;2.13;0.85;;;24.90;55.90;;;;;;4985691;28;20480;-62
2021/06/22 06:10:39;;;;;;;2.87;0.93;;;24.90;56.10;;;;;;4991279;28;20893;-62
2021/06/22 06:13:05;;;;;;;2.95;0.82;;;24.90;56.10;;;;;;4997479;28;20427;-62
2021/06/22 06:15:31;;;;;;;2.90;0.80;;;24.90;56.30;;;;;;4997454;28;20764;-62
2021/06/22 06:17:57;;;;;;;3.40;0.90;;;25.00;56.20;;;;;;4990645;28;20840;-62
2021/06/22 06:20:25;;;;;;;2.90;0.95;;;25.00;56.00;;;;;;4991935;28;20394;-62
2021/06/22 06:22:51;;;;;;;2.40;0.80;;;25.00;56.00;;;;;;4990364;28;20481;-62
2021/06/22 06:25:17;;;;;;;3.08;0.80;;;25.00;55.80;;;;;;4996835;28;20400;-62
2021/06/22 06:30:12;;;;;;;2.47;0.90;;;25.00;56.00;;;;;;4996358;28;21031;-62
2021/06/22 06:32:37;;;;;;;2.73;0.93;;;25.00;55.90;;;;;;4993490;28;20459;-62
2021/06/22 06:35:04;;;;;;;2.30;0.77;;;25.00;55.80;;;;;;4991093;28;20404;-62
2021/06/22 06:37:30;;;;;;;2.25;0.80;;;25.00;55.80;;;;;;5002896;28;20405;-63
2021/06/22 06:39:56;;;;;;;2.33;0.80;;;25.00;55.90;;;;;;4990973;28;21454;-62
2021/06/22 06:42:22;;;;;;;2.33;0.88;;;25.00;55.90;;;;;;4994183;28;20454;-62
2021/06/22 06:44:47;;;;;;;2.13;0.80;;;25.00;55.80;;;;;;4995774;28;20798;-62
2021/06/22 06:47:13;;;;;;;1.73;0.80;;;25.00;55.90;;;;;;4996096;28;20412;-62
2021/06/22 06:49:39;;;;;;;2.70;0.80;;;25.10;55.80;;;;;;4999651;28;20395;-62
2021/06/22 06:52:05;;;;;;;2.43;0.80;;;25.10;55.80;;;;;;4991529;28;20403;-63
2021/06/22 06:54:30;;;;;;;1.65;0.60;;;25.10;55.50;;;;;;4990858;28;20394;-62
2021/06/22 06:56:57;;;;;;;2.63;0.80;;;25.10;55.60;;;;;;4987073;28;20502;-63
2021/06/22 06:59:23;;;;;;;1.83;0.65;;;25.10;55.50;;;;;;4984706;28;20893;-63
2021/06/22 07:01:49;;;;;;;1.37;0.60;;;25.10;55.60;;;;;;4987611;28;20402;-63
2021/06/22 07:04:14;;;;;;;2.55;0.80;;;25.10;55.70;;;;;;4995444;28;20411;-62
2021/06/22 07:06:40;;;;;;;2.60;0.80;;;25.10;55.60;;;;;;4992119;28;20405;-62
2021/06/22 07:09:06;;;;;;;1.98;0.80;;;25.10;55.50;;;;;;4990090;28;20459;-62
2021/06/22 07:11:32;;;;;;;2.10;0.80;;;25.10;55.60;;;;;;4989981;28;20392;-62
2021/06/22 07:13:57;;;;;;;2.03;0.80;;;25.10;55.40;;;;;;4988374;28;20408;-62
2021/06/22 07:16:23;;;;;;;1.80;0.80;;;25.10;55.60;;;;;;5000282;28;21036;-62
2021/06/22 07:18:49;;;;;;;2.40;0.80;;;25.10;55.40;;;;;;4990825;28;21298;-62
2021/06/22 07:21:16;;;;;;;1.55;0.60;;;25.10;55.50;;;;;;4990915;28;20895;-63
2021/06/22 07:23:42;;;;;;;1.60;0.57;;;25.20;55.60;;;;;;4992348;28;20413;-62
2021/06/22 07:26:08;;;;;;;1.77;0.80;;;25.20;55.50;;;;;;4990909;28;20453;-62
2021/06/22 07:28:34;;;;;;;1.50;0.70;;;25.20;55.40;;;;;;4990412;28;20390;-62
2021/06/22 07:31:02;;;;;;;1.85;0.70;;;25.10;55.50;;;;;;4990633;28;20379;-62
2021/06/22 07:33:28;;;;;;;2.55;0.80;;;25.20;55.60;;;;;;4983967;28;20397;-62
2021/06/22 07:35:54;;;;;;;1.53;0.60;;;25.20;55.60;;;;;;4989985;28;20380;-62
2021/06/22 07:38:19;;;;;;;1.38;0.75;;;25.20;55.40;;;;;;4990139;28;20400;-62
2021/06/22 07:40:45;;;;;;;1.33;0.70;;;25.20;55.30;;;;;;4994658;28;20385;-62
2021/06/22 07:43:11;;;;;;;1.20;0.68;;;25.20;55.40;;;;;;4989924;28;20447;-63
2021/06/22 07:45:36;;;;;;;1.70;0.70;;;25.20;55.50;;;;;;4991227;28;20943;-64
2021/06/22 07:48:03;;;;;;;2.17;0.73;;;25.20;55.30;;;;;;4994026;28;20418;-62
2021/06/22 07:50:29;;;;;;;2.50;0.80;;;25.20;55.30;;;;;;4990462;28;20877;-62
2021/06/22 07:52:55;;;;;;;1.20;0.63;;;25.20;55.30;;;;;;4994491;28;20397;-62
2021/06/22 07:55:23;;;;;;;1.85;0.70;;;25.20;55.20;;;;;;4995050;28;20483;-62
2021/06/22 07:57:50;;;;;;;1.70;0.80;;;25.20;55.30;;;;;;4995283;28;20420;-62
2021/06/22 08:00:30;;;;;;;2.70;0.60;;;25.20;55.30;;;;;;4988727;28;20401;-62
2021/06/22 08:02:56;;;;;;;1.38;0.50;;;25.20;55.20;;;;;;4987187;28;20403;-62
2021/06/22 08:05:22;;;;;;;1.25;0.60;;;25.30;55.30;;;;;;4999555;28;20389;-62
2021/06/22 08:07:48;;;;;;;1.23;0.50;;;25.30;55.20;;;;;;4989219;28;20955;-62
2021/06/22 08:10:15;;;;;;;1.65;0.77;;;25.30;55.20;;;;;;4975235;28;20431;-62
2021/06/22 08:12:40;;;;;;;2.60;0.60;;;25.30;55.20;;;;;;4990113;28;20385;-62
2021/06/22 08:15:07;;;;;;;1.65;0.63;;;25.30;55.10;;;;;;4998330;28;20410;-62
2021/06/22 08:17:33;;;;;;;1.95;0.60;;;25.20;55.10;;;;;;4997732;28;21190;-62
2021/06/22 08:19:59;;;;;;;1.58;0.55;;;25.30;55.20;;;;;;4991734;28;21507;-62
2021/06/22 08:22:24;;;;;;;1.30;0.60;;;25.30;55.10;;;;;;4990759;28;20744;-62
2021/06/22 08:24:50;;;;;;;1.63;0.68;;;25.30;55.10;;;;;;4989041;28;20382;-62
2021/06/22 08:27:17;;;;;;;1.90;0.60;;;25.30;55.10;;;;;;4991001;28;20903;-62
2021/06/22 08:29:43;;;;;;;1.88;0.60;;;25.30;55.10;;;;;;4995332;28;20389;-62
2021/06/22 08:32:09;;;;;;;1.40;0.70;;;25.30;55.00;;;;;;4985798;28;20395;-62
2021/06/22 08:34:35;;;;;;;1.67;0.67;;;25.30;55.10;;;;;;4986241;28;20406;-62
2021/06/22 08:37:01;;;;;;;1.40;0.70;;;25.30;55.00;;;;;;4995575;28;20412;-62
2021/06/22 08:39:26;;;;;;;1.50;0.65;;;25.30;55.00;;;;;;4985003;28;20444;-63
2021/06/22 08:41:53;;;;;;;1.73;0.70;;;25.30;55.00;;;;;;4988210;28;20445;-62
2021/06/22 08:44:22;;;;;;;1.75;0.68;;;25.30;55.00;;;;;;4994693;28;20885;-63
2021/06/22 08:46:49;;;;;;;1.17;0.60;;;25.30;55.00;;;;;;4994240;28;20437;-62
2021/06/22 08:49:15;;;;;;;1.20;0.60;;;25.30;55.00;;;;;;4999272;28;21495;-63
2021/06/22 08:51:42;;;;;;;1.65;0.60;;;25.30;54.90;;;;;;4990065;28;20493;-63
2021/06/22 08:54:08;;;;;;;1.63;0.57;;;25.30;55.00;;;;;;4989398;28;20398;-62
2021/06/22 08:56:35;;;;;;;1.90;0.60;;;25.30;55.00;;;;;;4989557;28;20398;-62
2021/06/22 08:59:01;;;;;;;1.35;0.50;;;25.30;54.90;;;;;;4990149;28;20742;-62
2021/06/22 09:01:27;;;;;;;1.23;0.60;;;25.30;54.90;;;;;;4990322;28;20951;-62
2021/06/22 09:03:52;;;;;;;1.63;0.70;;;25.30;54.90;;;;;;4988305;28;20451;-62
2021/06/22 09:06:18;;;;;;;2.00;0.60;;;25.30;54.90;;;;;;4984673;28;20827;-62
2021/06/22 09:08:54;;;;;;;2.10;0.60;;;25.30;54.90;;;;;;4986282;28;20423;-62
2021/06/22 09:11:20;;;;;;;1.30;0.60;;;25.30;54.90;;;;;;4986132;28;20388;-63
2021/06/22 09:14:04;;;;;;;1.20;0.50;;;25.30;54.90;;;;;;4989236;28;20402;-62
2021/06/22 09:16:30;;;;;;;1.35;0.63;;;25.30;54.90;;;;;;4989385;28;20493;-62
2021/06/22 09:19:07;;;;;;;1.38;0.50;;;25.30;54.90;;;;;;4984956;28;20941;-62
2021/06/22 09:21:41;;;;;;;1.70;0.60;;;25.30;54.90;;;;;;4991402;28;20403;-62
2021/06/22 09:24:26;;;;;;;1.15;0.47;;;25.30;54.90;;;;;;4986675;28;20409;-62
2021/06/22 09:26:52;;;;;;;1.50;0.63;;;25.30;54.80;;;;;;4988475;28;20427;-62
2021/06/22 09:29:20;;;;;;;1.10;0.60;;;25.30;54.80;;;;;;4992875;28;20392;-62
2021/06/22 09:31:54;;;;;;;1.38;0.65;;;25.30;54.80;;;;;;4993029;28;20388;-62
2021/06/22 09:34:21;;;;;;;1.60;0.70;;;25.30;54.80;;;;;;4992685;28;20385;-62
2021/06/22 09:37:07;;;;;;;2.10;0.77;;;25.30;54.80;;;;;;4993259;28;20785;-62
2021/06/22 09:39:33;;;;;;;1.25;0.55;;;25.30;54.80;;;;;;4984143;28;20449;-62
2021/06/22 09:41:59;;;;;;;1.70;0.60;;;25.30;54.80;;;;;;4984241;28;20893;-62
2021/06/22 09:44:27;;;;;;;1.42;0.60;;;25.30;54.60;;;;;;4989440;28;20382;-62
2021/06/22 09:46:58;;;;;;;1.52;0.60;;;25.30;54.70;;;;;;4988655;28;20482;-62
2021/06/22 09:49:26;;;;;;;1.30;0.60;;;25.30;54.70;;;;;;4988415;28;20468;-62
2021/06/22 09:52:03;;;;;;;1.25;0.55;;;25.30;54.70;;;;;;4988494;28;20397;-62
2021/06/22 09:54:33;;;;;;;1.40;0.50;;;25.30;54.70;;;;;;4994158;28;20413;-62
2021/06/22 09:57:16;;;;;;;1.23;0.60;;;25.30;54.60;;;;;;4993140;28;20507;-62
2021/06/22 09:59:57;;;;;;;1.45;0.70;;;25.30;54.70;;;;;;4992121;28;20394;-62
2021/06/22 10:02:25;;;;;;;1.00;0.50;;;25.30;54.70;;;;;;4993148;28;20403;-62
2021/06/22 10:04:58;;;;;;;1.52;0.60;;;25.30;54.70;;;;;;4991695;28;20462;-62
2021/06/22 10:07:25;;;;;;;1.75;0.60;;;25.30;54.60;;;;;;4993185;28;20427;-63
2021/06/22 10:09:53;;;;;;;2.28;0.70;;;25.30;54.70;;;;;;4991972;28;20390;-64
2021/06/22 10:12:20;;;;;;;2.05;0.77;;;25.40;54.80;;;;;;4991076;28;20399;-62
2021/06/22 10:14:48;;;;;;;1.33;0.70;;;25.30;54.70;;;;;;4991991;28;20385;-62
2021/06/22 10:17:20;;;;;;;1.20;0.60;;;25.30;54.70;;;;;;4988941;28;20965;-62
2021/06/22 10:19:54;;;;;;;1.48;0.60;;;25.30;54.60;;;;;;4991623;28;20394;-62
2021/06/22 10:22:24;;;;;;;1.50;0.63;;;25.30;54.70;;;;;;4992661;28;20397;-62
2021/06/22 10:24:50;;;;;;;1.17;0.60;;;25.30;54.60;;;;;;4990284;28;20418;-62
2021/06/22 10:27:18;;;;;;;1.60;0.50;;;25.30;54.60;;;;;;4990335;28;21404;-62
2021/06/22 10:29:47;;;;;;;1.10;0.60;;;25.30;54.70;;;;;;4994463;28;20431;-62
2021/06/22 10:32:14;;;;;;;1.48;0.60;;;25.30;54.70;;;;;;4991477;28;20501;-63
2021/06/22 10:34:53;;;;;;;1.30;0.68;;;25.30;54.70;;;;;;4992594;28;20398;-62
2021/06/22 10:37:31;;;;;;;1.35;0.60;;;25.30;54.70;;;;;;4996524;28;20400;-62
2021/06/22 10:40:06;;;;;;;1.65;0.70;;;25.30;54.70;;;;;;4996949;28;20466;-62
2021/06/22 10:42:42;;;;;;;1.30;0.60;;;25.30;54.70;;;;;;4994787;28;20405;-62
2021/06/22 10:45:09;;;;;;;1.42;0.60;;;25.30;54.70;;;;;;4988600;28;20404;-62
2021/06/22 10:47:40;;;;;;;1.40;0.70;;;25.30;54.70;;;;;;4990500;28;20453;-64
2021/06/22 10:50:18;;;;;;;1.38;0.60;;;25.30;54.70;;;;;;4987205;28;20814;-62
2021/06/22 10:52:44;;;;;;;2.13;0.80;;;25.30;54.60;;;;;;4990960;28;20575;-62
2021/06/22 10:55:20;;;;;;;1.42;0.55;;;25.40;54.70;;;;;;4990868;28;20421;-62
2021/06/22 10:58:07;;;;;;;1.00;0.60;;;25.30;54.60;;;;;;4990143;28;20381;-62
2021/06/22 11:03:05;;;;;;;1.17;0.70;;;25.40;54.70;;;;;;4989186;28;20513;-62
2021/06/22 11:05:37;;;;;;;1.42;0.60;;;25.40;54.70;;;;;;4988890;28;20398;-63
2021/06/22 11:08:08;;;;;;;1.73;0.70;;;25.40;54.70;;;;;;4990245;28;20433;-62
2021/06/22 11:10:39;;;;;;;1.60;0.60;;;25.40;54.60;;;;;;4990251;28;20445;-64
2021/06/22 11:13:06;;;;;;;0.75;0.45;;;25.40;54.60;;;;;;4990591;28;20441;-62
2021/06/22 11:15:52;;;;;;;1.58;0.63;;;25.40;54.60;;;;;;4987004;28;20486;-62
2021/06/22 11:18:18;;;;;;;1.08;0.50;;;25.40;54.60;;;;;;4990259;28;20415;-62
2021/06/22 11:21:04;;;;;;;0.83;0.50;;;25.40;54.60;;;;;;4994006;28;20397;-62
2021/06/22 11:23:30;;;;;;;1.23;0.60;;;25.40;54.50;;;;;;4982021;28;20414;-62
2021/06/22 11:26:03;;;;;;;1.10;0.60;;;25.40;54.50;;;;;;4990636;28;20883;-63
2021/06/22 11:28:59;;;;;;;1.30;0.57;;;25.40;54.60;;;;;;4991410;28;20985;-63
2021/06/22 11:31:51;;;;;;;1.10;0.47;;;25.40;54.50;;;;;;4982343;28;20413;-62
2021/06/22 11:34:22;;;;;;;1.42;0.60;;;25.40;54.50;;;;;;4990203;28;20393;-62
2021/06/22 11:36:48;;;;;;;2.20;0.80;;;25.40;54.50;;;;;;4991263;28;20910;-62
2021/06/22 11:39:59;;;;;;;1.38;0.63;;;25.40;54.50;;;;;;4991797;28;20490;-62
2021/06/22 11:42:25;;;;;;;1.23;0.50;;;25.50;54.50;;;;;;4981299;28;20391;-62
2021/06/22 11:45:04;;;;;;;0.90;0.50;;;25.40;54.40;;;;;;4986795;28;20733;-62
2021/06/22 11:47:32;;;;;;;1.25;0.63;;;25.40;54.40;;;;;;4999392;28;20438;-62
2021/06/22 11:50:19;;;;;;;1.20;0.60;;;25.40;54.40;;;;;;4989585;28;20389;-62
2021/06/22 11:52:47;;;;;;;1.47;0.70;;;25.40;54.40;;;;;;4982617;28;20965;-63
2021/06/22 11:55:21;;;;;;;1.17;0.65;;;25.50;54.40;;;;;;4986865;28;20394;-62
2021/06/22 11:57:56;;;;;;;1.40;0.65;;;25.50;54.40;;;;;;4993437;28;20403;-62
2021/06/22 12:00:25;;;;;;;1.05;0.50;;;25.50;54.40;;;;;;4991382;28;20785;-62
2021/06/22 12:02:54;;;;;;;1.73;0.70;;;25.50;54.30;;;;;;4991676;28;20422;-62
2021/06/22 12:05:23;;;;;;;1.05;0.60;;;25.50;54.30;;;;;;4989827;28;20389;-63
2021/06/22 12:07:56;;;;;;;1.10;0.70;;;25.50;54.30;;;;;;4989082;28;20418;-63
2021/06/22 12:10:24;;;;;;;1.52;0.60;;;25.50;54.30;;;;;;4989283;28;20404;-62
2021/06/22 12:12:52;;;;;;;1.10;0.57;;;25.50;54.30;;;;;;4988655;28;20402;-62
2021/06/22 12:15:39;;;;;;;1.40;0.60;;;25.50;54.20;;;;;;4994781;28;20395;-62
2021/06/22 12:18:05;;;;;;;1.85;0.70;;;25.50;54.20;;;;;;4992339;28;20390;-62
2021/06/22 12:20:34;;;;;;;1.20;0.65;;;25.50;54.30;;;;;;4992905;28;20378;-62
2021/06/22 12:23:07;;;;;;;1.10;0.70;;;25.60;54.20;;;;;;4986694;28;20505;-62
2021/06/22 12:25:45;;;;;;;0.70;0.40;;;25.60;54.20;;;;;;4987245;28;20449;-62
2021/06/22 12:28:11;;;;;;;1.10;0.50;;;25.60;54.10;;;;;;4991300;28;20957;-62
2021/06/22 12:30:41;;;;;;;1.13;0.60;;;25.60;54.20;;;;;;4987816;28;20877;-63
2021/06/22 12:33:08;;;;;;;1.27;0.50;;;25.60;54.30;;;;;;4994122;28;20399;-62
2021/06/22 12:35:33;;;;;;;1.27;0.57;;;25.60;54.20;;;;;;5000257;28;20385;-62
2021/06/22 12:38:04;;;;;;;1.20;0.60;;;25.60;54.70;;;;;;4998096;28;20429;-62
2021/06/22 12:40:30;;;;;;;1.38;0.50;;;25.60;54.20;;;;;;4992260;28;20394;-62
2021/06/22 12:42:56;;;;;;;1.33;0.57;;;25.60;54.20;;;;;;4989546;28;20406;-62
2021/06/22 12:45:24;;;;;;;1.30;0.50;;;25.60;54.20;;;;;;4997842;28;20405;-62
2021/06/22 12:47:53;;;;;;;1.10;0.50;;;25.60;54.10;;;;;;4992909;28;20604;-62
2021/06/22 12:50:20;;;;;;;1.42;0.60;;;25.60;54.10;;;;;;4987269;28;20387;-62
2021/06/22 12:52:47;;;;;;;1.50;0.70;;;25.60;54.10;;;;;;4993267;28;20413;-62
2021/06/22 12:55:34;;;;;;;1.40;0.60;;;25.60;54.20;;;;;;4990648;28;20909;-62
2021/06/22 12:57:59;;;;;;;1.00;0.70;;;25.60;54.10;;;;;;4988803;28;20428;-62